KSIY/SIY METAR and TAF weather

Enter ICAO airport designator
Station Type Date Time Source
KSIY METAR 2018/12/13 19:53 UTC NOAA

KSIY 131953Z AUTO 00000KT 10SM CLR 04/M02 A3030 RMK AO2 SLP286 T00441022


Station Type Date Time Source
KSIY Decoded METAR 2018/12/13 19:53 UTC NOAA

MONTAGUE SISKIYOU COUNTY, CA, United States (KSIY) 41-46N 122-28W
Dec 13, 2018 - 02:53 PM EST / 2018.12.13 1953 UTC
Wind: Calm:0
Visibility: 10 mile(s):0
Sky conditions: clear
Temperature: 39.9 F (4.4 C)
Dew Point: 28.0 F (-2.2 C)
Relative Humidity: 62%
Pressure (altimeter): 30.3 in. Hg (1026 hPa)
ob: KSIY 131953Z AUTO 00000KT 10SM CLR 04/M02 A3030 RMK AO2 SLP286 T00441022
cycle: 20

Station Type Date Time Source
KSIY TAF UTC NOAA

Error!


Example: see airport list